sensor_id;sensor_type;location;lat;lon;timestamp;P1;durP1;ratioP1;P2;durP2;ratioP2
28625;SDS011;18905;42.668;23.364;2023-04-24T00:00:30;15.00;;;7.15;;
28625;SDS011;18905;42.668;23.364;2023-04-24T00:02:56;13.88;;;7.60;;
28625;SDS011;18905;42.668;23.364;2023-04-24T00:05:23;19.58;;;7.60;;
28625;SDS011;18905;42.668;23.364;2023-04-24T00:07:49;13.25;;;7.03;;
28625;SDS011;18905;42.668;23.364;2023-04-24T00:10:17;15.68;;;6.10;;
28625;SDS011;18905;42.668;23.364;2023-04-24T00:12:43;10.68;;;5.97;;
28625;SDS011;18905;42.668;23.364;2023-04-24T00:15:09;10.68;;;6.00;;
28625;SDS011;18905;42.668;23.364;2023-04-24T00:17:35;8.90;;;5.22;;
28625;SDS011;18905;42.668;23.364;2023-04-24T00:20:01;9.15;;;4.82;;
28625;SDS011;18905;42.668;23.364;2023-04-24T00:22:29;11.05;;;4.95;;
28625;SDS011;18905;42.668;23.364;2023-04-24T00:24:56;10.10;;;5.00;;
28625;SDS011;18905;42.668;23.364;2023-04-24T00:27:22;10.75;;;4.90;;
28625;SDS011;18905;42.668;23.364;2023-04-24T00:29:47;7.88;;;5.13;;
28625;SDS011;18905;42.668;23.364;2023-04-24T00:32:13;8.73;;;5.15;;
28625;SDS011;18905;42.668;23.364;2023-04-24T00:34:39;12.05;;;4.70;;
28625;SDS011;18905;42.668;23.364;2023-04-24T00:37:04;12.63;;;4.90;;
28625;SDS011;18905;42.668;23.364;2023-04-24T00:39:30;12.43;;;6.03;;
28625;SDS011;18905;42.668;23.364;2023-04-24T00:41:56;9.52;;;5.20;;
28625;SDS011;18905;42.668;23.364;2023-04-24T00:44:21;9.25;;;5.78;;
28625;SDS011;18905;42.668;23.364;2023-04-24T00:46:47;12.38;;;5.53;;
28625;SDS011;18905;42.668;23.364;2023-04-24T00:49:18;12.40;;;5.47;;
28625;SDS011;18905;42.668;23.364;2023-04-24T00:51:44;8.40;;;5.35;;
28625;SDS011;18905;42.668;23.364;2023-04-24T00:54:10;11.27;;;5.50;;
28625;SDS011;18905;42.668;23.364;2023-04-24T00:56:36;11.63;;;5.68;;
28625;SDS011;18905;42.668;23.364;2023-04-24T00:59:02;9.75;;;6.05;;
28625;SDS011;18905;42.668;23.364;2023-04-24T01:01:28;10.90;;;5.72;;
28625;SDS011;18905;42.668;23.364;2023-04-24T01:03:53;11.85;;;5.90;;
28625;SDS011;18905;42.668;23.364;2023-04-24T01:06:20;8.43;;;5.10;;
28625;SDS011;18905;42.668;23.364;2023-04-24T01:08:45;7.57;;;5.28;;
28625;SDS011;18905;42.668;23.364;2023-04-24T01:11:12;9.63;;;5.65;;
28625;SDS011;18905;42.668;23.364;2023-04-24T01:13:38;9.90;;;5.18;;
28625;SDS011;18905;42.668;23.364;2023-04-24T01:16:04;9.88;;;5.45;;
28625;SDS011;18905;42.668;23.364;2023-04-24T01:18:30;12.10;;;5.53;;
28625;SDS011;18905;42.668;23.364;2023-04-24T01:20:57;13.68;;;5.13;;
28625;SDS011;18905;42.668;23.364;2023-04-24T01:23:23;7.93;;;5.28;;
28625;SDS011;18905;42.668;23.364;2023-04-24T01:25:49;17.33;;;6.10;;
28625;SDS011;18905;42.668;23.364;2023-04-24T01:28:16;11.07;;;6.30;;
28625;SDS011;18905;42.668;23.364;2023-04-24T01:30:42;9.32;;;5.97;;
28625;SDS011;18905;42.668;23.364;2023-04-24T01:33:08;15.32;;;6.40;;
28625;SDS011;18905;42.668;23.364;2023-04-24T01:35:33;13.48;;;5.95;;
28625;SDS011;18905;42.668;23.364;2023-04-24T01:38:01;11.95;;;6.60;;
28625;SDS011;18905;42.668;23.364;2023-04-24T01:40:26;10.10;;;5.78;;
28625;SDS011;18905;42.668;23.364;2023-04-24T01:42:52;8.13;;;5.45;;
28625;SDS011;18905;42.668;23.364;2023-04-24T01:45:18;11.68;;;5.95;;
28625;SDS011;18905;42.668;23.364;2023-04-24T01:47:43;12.65;;;6.03;;
28625;SDS011;18905;42.668;23.364;2023-04-24T01:50:09;10.10;;;5.80;;
28625;SDS011;18905;42.668;23.364;2023-04-24T01:52:35;16.05;;;6.43;;
28625;SDS011;18905;42.668;23.364;2023-04-24T01:55:01;11.15;;;6.45;;
28625;SDS011;18905;42.668;23.364;2023-04-24T01:57:27;10.82;;;6.35;;
28625;SDS011;18905;42.668;23.364;2023-04-24T01:59:55;12.13;;;6.32;;
28625;SDS011;18905;42.668;23.364;2023-04-24T02:02:21;13.23;;;6.50;;
28625;SDS011;18905;42.668;23.364;2023-04-24T02:04:48;10.45;;;6.13;;
28625;SDS011;18905;42.668;23.364;2023-04-24T02:07:14;16.35;;;6.35;;
28625;SDS011;18905;42.668;23.364;2023-04-24T02:09:39;9.85;;;6.05;;
28625;SDS011;18905;42.668;23.364;2023-04-24T02:12:05;11.60;;;6.25;;
28625;SDS011;18905;42.668;23.364;2023-04-24T02:14:30;13.35;;;6.60;;
28625;SDS011;18905;42.668;23.364;2023-04-24T02:16:56;14.82;;;6.70;;
28625;SDS011;18905;42.668;23.364;2023-04-24T02:19:21;13.27;;;6.30;;
28625;SDS011;18905;42.668;23.364;2023-04-24T02:21:47;8.80;;;6.75;;
28625;SDS011;18905;42.668;23.364;2023-04-24T02:24:12;14.70;;;6.55;;
28625;SDS011;18905;42.668;23.364;2023-04-24T02:26:37;18.58;;;7.07;;
28625;SDS011;18905;42.668;23.364;2023-04-24T02:29:03;13.77;;;7.03;;
28625;SDS011;18905;42.668;23.364;2023-04-24T02:31:28;10.75;;;6.63;;
28625;SDS011;18905;42.668;23.364;2023-04-24T02:33:54;13.73;;;7.38;;
28625;SDS011;18905;42.668;23.364;2023-04-24T02:36:19;12.35;;;7.53;;
28625;SDS011;18905;42.668;23.364;2023-04-24T02:38:45;13.27;;;7.03;;
28625;SDS011;18905;42.668;23.364;2023-04-24T02:41:10;12.75;;;7.13;;
28625;SDS011;18905;42.668;23.364;2023-04-24T02:43:36;13.77;;;7.30;;
28625;SDS011;18905;42.668;23.364;2023-04-24T02:46:01;14.00;;;7.25;;
28625;SDS011;18905;42.668;23.364;2023-04-24T02:48:27;15.48;;;7.38;;
28625;SDS011;18905;42.668;23.364;2023-04-24T02:50:52;13.93;;;7.57;;
28625;SDS011;18905;42.668;23.364;2023-04-24T02:53:18;16.83;;;8.20;;
28625;SDS011;18905;42.668;23.364;2023-04-24T02:55:43;14.70;;;7.82;;
28625;SDS011;18905;42.668;23.364;2023-04-24T02:58:09;14.95;;;8.40;;
28625;SDS011;18905;42.668;23.364;2023-04-24T03:00:35;13.60;;;7.97;;
28625;SDS011;18905;42.668;23.364;2023-04-24T03:03:00;16.30;;;8.02;;
28625;SDS011;18905;42.668;23.364;2023-04-24T03:05:26;12.77;;;8.05;;
28625;SDS011;18905;42.668;23.364;2023-04-24T03:07:52;17.88;;;8.57;;
28625;SDS011;18905;42.668;23.364;2023-04-24T03:10:18;21.90;;;8.10;;
28625;SDS011;18905;42.668;23.364;2023-04-24T03:12:43;13.88;;;8.48;;
28625;SDS011;18905;42.668;23.364;2023-04-24T03:15:09;17.80;;;8.77;;
28625;SDS011;18905;42.668;23.364;2023-04-24T03:17:34;13.82;;;8.38;;
28625;SDS011;18905;42.668;23.364;2023-04-24T03:20:00;17.73;;;8.23;;
28625;SDS011;18905;42.668;23.364;2023-04-24T03:22:26;16.35;;;8.43;;
28625;SDS011;18905;42.668;23.364;2023-04-24T03:24:51;17.42;;;8.10;;
28625;SDS011;18905;42.668;23.364;2023-04-24T03:27:17;13.73;;;8.27;;
28625;SDS011;18905;42.668;23.364;2023-04-24T03:29:42;12.75;;;7.78;;
28625;SDS011;18905;42.668;23.364;2023-04-24T03:32:08;18.75;;;8.70;;
28625;SDS011;18905;42.668;23.364;2023-04-24T03:34:33;15.38;;;8.38;;
28625;SDS011;18905;42.668;23.364;2023-04-24T03:36:59;12.77;;;8.05;;
28625;SDS011;18905;42.668;23.364;2023-04-24T03:39:25;14.65;;;8.10;;
28625;SDS011;18905;42.668;23.364;2023-04-24T03:41:50;19.75;;;7.47;;
28625;SDS011;18905;42.668;23.364;2023-04-24T03:44:16;14.75;;;7.55;;
28625;SDS011;18905;42.668;23.364;2023-04-24T03:46:41;13.43;;;7.95;;
28625;SDS011;18905;42.668;23.364;2023-04-24T03:49:06;16.05;;;7.95;;
28625;SDS011;18905;42.668;23.364;2023-04-24T03:51:32;18.63;;;8.00;;
28625;SDS011;18905;42.668;23.364;2023-04-24T03:53:57;11.80;;;7.00;;
28625;SDS011;18905;42.668;23.364;2023-04-24T03:56:23;18.80;;;7.60;;
28625;SDS011;18905;42.668;23.364;2023-04-24T03:58:48;14.50;;;7.35;;
28625;SDS011;18905;42.668;23.364;2023-04-24T04:01:13;18.88;;;7.28;;
28625;SDS011;18905;42.668;23.364;2023-04-24T04:03:40;14.32;;;7.05;;
28625;SDS011;18905;42.668;23.364;2023-04-24T04:06:06;15.90;;;7.25;;
28625;SDS011;18905;42.668;23.364;2023-04-24T04:08:31;16.42;;;7.55;;
28625;SDS011;18905;42.668;23.364;2023-04-24T04:10:57;11.90;;;6.55;;
28625;SDS011;18905;42.668;23.364;2023-04-24T04:13:22;17.23;;;6.95;;
28625;SDS011;18905;42.668;23.364;2023-04-24T04:15:48;15.02;;;6.15;;
28625;SDS011;18905;42.668;23.364;2023-04-24T04:18:13;14.02;;;6.07;;
28625;SDS011;18905;42.668;23.364;2023-04-24T04:20:38;15.02;;;6.30;;
28625;SDS011;18905;42.668;23.364;2023-04-24T04:23:04;10.65;;;5.93;;
28625;SDS011;18905;42.668;23.364;2023-04-24T04:25:29;12.93;;;6.28;;
28625;SDS011;18905;42.668;23.364;2023-04-24T04:27:55;11.85;;;6.63;;
28625;SDS011;18905;42.668;23.364;2023-04-24T04:30:20;13.57;;;7.57;;
28625;SDS011;18905;42.668;23.364;2023-04-24T04:32:46;19.42;;;6.35;;
28625;SDS011;18905;42.668;23.364;2023-04-24T04:35:12;11.77;;;6.05;;
28625;SDS011;18905;42.668;23.364;2023-04-24T04:37:37;12.32;;;6.60;;
28625;SDS011;18905;42.668;23.364;2023-04-24T04:40:03;14.48;;;6.43;;
28625;SDS011;18905;42.668;23.364;2023-04-24T04:42:32;10.70;;;6.10;;
28625;SDS011;18905;42.668;23.364;2023-04-24T04:45:01;12.30;;;6.13;;
28625;SDS011;18905;42.668;23.364;2023-04-24T04:47:27;10.90;;;5.90;;
28625;SDS011;18905;42.668;23.364;2023-04-24T04:49:53;15.07;;;6.80;;
28625;SDS011;18905;42.668;23.364;2023-04-24T04:52:19;12.05;;;6.18;;
28625;SDS011;18905;42.668;23.364;2023-04-24T04:54:44;15.00;;;6.57;;
28625;SDS011;18905;42.668;23.364;2023-04-24T04:57:11;10.38;;;6.05;;
28625;SDS011;18905;42.668;23.364;2023-04-24T04:59:37;13.27;;;6.60;;
28625;SDS011;18905;42.668;23.364;2023-04-24T05:02:02;9.50;;;6.35;;
28625;SDS011;18905;42.668;23.364;2023-04-24T05:04:28;8.77;;;5.90;;
28625;SDS011;18905;42.668;23.364;2023-04-24T05:06:53;11.52;;;6.20;;
28625;SDS011;18905;42.668;23.364;2023-04-24T05:09:18;10.20;;;6.32;;
28625;SDS011;18905;42.668;23.364;2023-04-24T05:11:44;12.18;;;6.43;;
28625;SDS011;18905;42.668;23.364;2023-04-24T05:14:09;11.98;;;6.07;;
28625;SDS011;18905;42.668;23.364;2023-04-24T05:16:35;16.20;;;6.65;;
28625;SDS011;18905;42.668;23.364;2023-04-24T05:19:02;12.25;;;6.25;;
28625;SDS011;18905;42.668;23.364;2023-04-24T05:21:27;12.32;;;6.30;;
28625;SDS011;18905;42.668;23.364;2023-04-24T05:23:52;16.77;;;6.28;;
28625;SDS011;18905;42.668;23.364;2023-04-24T05:26:18;15.38;;;7.20;;
28625;SDS011;18905;42.668;23.364;2023-04-24T05:28:44;11.05;;;6.70;;
28625;SDS011;18905;42.668;23.364;2023-04-24T05:31:10;14.07;;;7.25;;
28625;SDS011;18905;42.668;23.364;2023-04-24T05:33:35;17.92;;;7.20;;
28625;SDS011;18905;42.668;23.364;2023-04-24T05:36:01;12.63;;;6.72;;
28625;SDS011;18905;42.668;23.364;2023-04-24T05:38:26;12.80;;;7.55;;
28625;SDS011;18905;42.668;23.364;2023-04-24T05:40:51;19.73;;;8.02;;
28625;SDS011;18905;42.668;23.364;2023-04-24T05:43:17;14.60;;;7.93;;
28625;SDS011;18905;42.668;23.364;2023-04-24T05:45:42;18.98;;;7.80;;
28625;SDS011;18905;42.668;23.364;2023-04-24T05:48:08;19.70;;;8.52;;
28625;SDS011;18905;42.668;23.364;2023-04-24T05:50:33;17.35;;;8.23;;
28625;SDS011;18905;42.668;23.364;2023-04-24T05:52:58;18.70;;;8.18;;
28625;SDS011;18905;42.668;23.364;2023-04-24T05:55:24;15.32;;;7.50;;
28625;SDS011;18905;42.668;23.364;2023-04-24T05:57:50;11.88;;;8.30;;
28625;SDS011;18905;42.668;23.364;2023-04-24T06:00:16;16.75;;;7.78;;
28625;SDS011;18905;42.668;23.364;2023-04-24T06:02:42;16.50;;;7.65;;
28625;SDS011;18905;42.668;23.364;2023-04-24T06:05:08;21.80;;;8.77;;
28625;SDS011;18905;42.668;23.364;2023-04-24T06:07:34;23.85;;;8.65;;
28625;SDS011;18905;42.668;23.364;2023-04-24T06:09:59;17.73;;;10.32;;
28625;SDS011;18905;42.668;23.364;2023-04-24T06:12:25;17.92;;;8.57;;
28625;SDS011;18905;42.668;23.364;2023-04-24T06:14:51;20.55;;;8.82;;
28625;SDS011;18905;42.668;23.364;2023-04-24T06:17:16;18.05;;;9.25;;
28625;SDS011;18905;42.668;23.364;2023-04-24T06:19:43;17.02;;;8.40;;
28625;SDS011;18905;42.668;23.364;2023-04-24T06:22:08;16.50;;;9.18;;
28625;SDS011;18905;42.668;23.364;2023-04-24T06:24:34;22.85;;;9.00;;
28625;SDS011;18905;42.668;23.364;2023-04-24T06:27:00;19.65;;;8.68;;
28625;SDS011;18905;42.668;23.364;2023-04-24T06:29:26;20.17;;;8.38;;
28625;SDS011;18905;42.668;23.364;2023-04-24T06:31:52;18.58;;;8.43;;
28625;SDS011;18905;42.668;23.364;2023-04-24T06:34:17;15.75;;;7.65;;
28625;SDS011;18905;42.668;23.364;2023-04-24T06:36:43;16.67;;;8.32;;
28625;SDS011;18905;42.668;23.364;2023-04-24T06:39:08;18.65;;;8.30;;
28625;SDS011;18905;42.668;23.364;2023-04-24T06:41:34;13.82;;;8.60;;
28625;SDS011;18905;42.668;23.364;2023-04-24T06:43:59;23.15;;;8.77;;
28625;SDS011;18905;42.668;23.364;2023-04-24T06:46:25;14.32;;;8.52;;
28625;SDS011;18905;42.668;23.364;2023-04-24T06:48:52;18.95;;;9.00;;
28625;SDS011;18905;42.668;23.364;2023-04-24T06:51:21;16.63;;;9.50;;
28625;SDS011;18905;42.668;23.364;2023-04-24T06:53:53;19.00;;;9.50;;
28625;SDS011;18905;42.668;23.364;2023-04-24T06:56:19;17.40;;;9.85;;
28625;SDS011;18905;42.668;23.364;2023-04-24T06:58:45;20.92;;;8.52;;
28625;SDS011;18905;42.668;23.364;2023-04-24T07:01:11;21.23;;;8.80;;
28625;SDS011;18905;42.668;23.364;2023-04-24T07:03:37;18.00;;;9.05;;
28625;SDS011;18905;42.668;23.364;2023-04-24T07:06:02;16.80;;;9.45;;
28625;SDS011;18905;42.668;23.364;2023-04-24T07:08:29;17.10;;;8.50;;
28625;SDS011;18905;42.668;23.364;2023-04-24T07:10:55;19.33;;;9.13;;
28625;SDS011;18905;42.668;23.364;2023-04-24T07:13:21;14.98;;;9.38;;
28625;SDS011;18905;42.668;23.364;2023-04-24T07:15:47;22.38;;;9.93;;
28625;SDS011;18905;42.668;23.364;2023-04-24T07:18:15;16.23;;;9.13;;
28625;SDS011;18905;42.668;23.364;2023-04-24T07:20:40;15.90;;;8.52;;
28625;SDS011;18905;42.668;23.364;2023-04-24T07:23:06;15.48;;;8.85;;
28625;SDS011;18905;42.668;23.364;2023-04-24T07:25:31;16.85;;;8.73;;
28625;SDS011;18905;42.668;23.364;2023-04-24T07:27:57;13.52;;;8.20;;
28625;SDS011;18905;42.668;23.364;2023-04-24T07:30:22;12.77;;;8.27;;
28625;SDS011;18905;42.668;23.364;2023-04-24T07:32:48;13.73;;;7.88;;
28625;SDS011;18905;42.668;23.364;2023-04-24T07:35:13;23.30;;;8.25;;
28625;SDS011;18905;42.668;23.364;2023-04-24T07:37:39;15.65;;;7.85;;
28625;SDS011;18905;42.668;23.364;2023-04-24T07:40:05;19.35;;;8.38;;
28625;SDS011;18905;42.668;23.364;2023-04-24T07:42:31;14.55;;;7.20;;
28625;SDS011;18905;42.668;23.364;2023-04-24T07:44:59;15.48;;;7.57;;
28625;SDS011;18905;42.668;23.364;2023-04-24T07:47:24;15.18;;;6.93;;
28625;SDS011;18905;42.668;23.364;2023-04-24T07:49:50;13.05;;;6.88;;
28625;SDS011;18905;42.668;23.364;2023-04-24T07:52:16;13.20;;;7.18;;
28625;SDS011;18905;42.668;23.364;2023-04-24T07:54:41;12.98;;;7.22;;
28625;SDS011;18905;42.668;23.364;2023-04-24T07:57:07;17.52;;;7.80;;
28625;SDS011;18905;42.668;23.364;2023-04-24T07:59:33;15.70;;;6.57;;
28625;SDS011;18905;42.668;23.364;2023-04-24T08:01:59;19.80;;;7.50;;
28625;SDS011;18905;42.668;23.364;2023-04-24T08:04:26;13.80;;;7.25;;
28625;SDS011;18905;42.668;23.364;2023-04-24T08:06:51;18.38;;;6.88;;
28625;SDS011;18905;42.668;23.364;2023-04-24T08:09:17;9.43;;;6.55;;
28625;SDS011;18905;42.668;23.364;2023-04-24T08:11:43;16.83;;;7.07;;
28625;SDS011;18905;42.668;23.364;2023-04-24T08:14:08;15.07;;;6.97;;
28625;SDS011;18905;42.668;23.364;2023-04-24T08:16:34;12.80;;;6.95;;
28625;SDS011;18905;42.668;23.364;2023-04-24T08:19:00;14.68;;;7.75;;
28625;SDS011;18905;42.668;23.364;2023-04-24T08:21:25;16.95;;;7.28;;
28625;SDS011;18905;42.668;23.364;2023-04-24T08:23:52;14.32;;;6.72;;
28625;SDS011;18905;42.668;23.364;2023-04-24T08:26:17;12.50;;;6.13;;
28625;SDS011;18905;42.668;23.364;2023-04-24T08:28:43;12.00;;;5.75;;
28625;SDS011;18905;42.668;23.364;2023-04-24T08:31:08;10.18;;;5.25;;
28625;SDS011;18905;42.668;23.364;2023-04-24T08:33:34;8.57;;;5.68;;
28625;SDS011;18905;42.668;23.364;2023-04-24T08:36:03;12.07;;;5.88;;
28625;SDS011;18905;42.668;23.364;2023-04-24T08:38:30;14.77;;;5.32;;
28625;SDS011;18905;42.668;23.364;2023-04-24T08:40:56;12.27;;;5.55;;
28625;SDS011;18905;42.668;23.364;2023-04-24T08:43:23;14.85;;;5.80;;
28625;SDS011;18905;42.668;23.364;2023-04-24T08:45:51;9.80;;;5.00;;
28625;SDS011;18905;42.668;23.364;2023-04-24T08:48:17;11.98;;;5.88;;
28625;SDS011;18905;42.668;23.364;2023-04-24T08:50:43;12.27;;;5.43;;
28625;SDS011;18905;42.668;23.364;2023-04-24T08:53:09;15.63;;;5.88;;
28625;SDS011;18905;42.668;23.364;2023-04-24T08:55:35;10.10;;;5.03;;
28625;SDS011;18905;42.668;23.364;2023-04-24T08:58:02;8.77;;;4.88;;
28625;SDS011;18905;42.668;23.364;2023-04-24T09:00:28;10.07;;;5.25;;
28625;SDS011;18905;42.668;23.364;2023-04-24T09:02:54;15.45;;;6.07;;
28625;SDS011;18905;42.668;23.364;2023-04-24T09:05:21;9.70;;;4.88;;
28625;SDS011;18905;42.668;23.364;2023-04-24T09:07:55;12.55;;;5.45;;
28625;SDS011;18905;42.668;23.364;2023-04-24T09:10:22;13.25;;;5.07;;
28625;SDS011;18905;42.668;23.364;2023-04-24T09:12:50;12.50;;;5.05;;
28625;SDS011;18905;42.668;23.364;2023-04-24T09:15:16;11.80;;;5.43;;
28625;SDS011;18905;42.668;23.364;2023-04-24T09:17:43;10.25;;;5.18;;
28625;SDS011;18905;42.668;23.364;2023-04-24T09:20:09;12.30;;;5.40;;
28625;SDS011;18905;42.668;23.364;2023-04-24T09:22:35;8.65;;;4.97;;
28625;SDS011;18905;42.668;23.364;2023-04-24T09:25:02;10.10;;;4.85;;
28625;SDS011;18905;42.668;23.364;2023-04-24T09:27:31;8.68;;;4.70;;
28625;SDS011;18905;42.668;23.364;2023-04-24T09:29:57;9.43;;;5.22;;
28625;SDS011;18905;42.668;23.364;2023-04-24T09:32:23;11.23;;;4.88;;
28625;SDS011;18905;42.668;23.364;2023-04-24T09:37:35;8.85;;;4.53;;
28625;SDS011;18905;42.668;23.364;2023-04-24T09:40:07;10.30;;;4.88;;
28625;SDS011;18905;42.668;23.364;2023-04-24T09:42:33;6.65;;;4.40;;
28625;SDS011;18905;42.668;23.364;2023-04-24T09:44:59;9.15;;;4.72;;
28625;SDS011;18905;42.668;23.364;2023-04-24T09:47:24;10.32;;;4.78;;
28625;SDS011;18905;42.668;23.364;2023-04-24T09:49:50;7.88;;;4.60;;
28625;SDS011;18905;42.668;23.364;2023-04-24T09:52:15;8.15;;;4.95;;
28625;SDS011;18905;42.668;23.364;2023-04-24T09:54:41;14.73;;;5.22;;
28625;SDS011;18905;42.668;23.364;2023-04-24T09:57:09;13.20;;;4.93;;
28625;SDS011;18905;42.668;23.364;2023-04-24T09:59:35;9.80;;;4.38;;
28625;SDS011;18905;42.668;23.364;2023-04-24T10:02:16;7.20;;;4.90;;
28625;SDS011;18905;42.668;23.364;2023-04-24T10:07:19;9.95;;;4.65;;
28625;SDS011;18905;42.668;23.364;2023-04-24T10:09:44;13.00;;;5.40;;
28625;SDS011;18905;42.668;23.364;2023-04-24T10:12:10;14.00;;;5.13;;
28625;SDS011;18905;42.668;23.364;2023-04-24T10:14:36;11.35;;;5.28;;
28625;SDS011;18905;42.668;23.364;2023-04-24T10:17:01;7.70;;;5.25;;
28625;SDS011;18905;42.668;23.364;2023-04-24T10:19:28;10.10;;;4.93;;
28625;SDS011;18905;42.668;23.364;2023-04-24T10:21:55;21.02;;;4.60;;
28625;SDS011;18905;42.668;23.364;2023-04-24T10:24:22;10.32;;;4.65;;
28625;SDS011;18905;42.668;23.364;2023-04-24T10:26:47;9.73;;;4.55;;
28625;SDS011;18905;42.668;23.364;2023-04-24T10:29:14;12.90;;;4.55;;
28625;SDS011;18905;42.668;23.364;2023-04-24T10:31:42;9.75;;;5.20;;
28625;SDS011;18905;42.668;23.364;2023-04-24T10:34:10;8.73;;;5.10;;
28625;SDS011;18905;42.668;23.364;2023-04-24T10:36:40;15.23;;;5.53;;
28625;SDS011;18905;42.668;23.364;2023-04-24T10:39:09;8.07;;;4.93;;
28625;SDS011;18905;42.668;23.364;2023-04-24T10:41:37;10.82;;;4.60;;
28625;SDS011;18905;42.668;23.364;2023-04-24T10:44:04;8.25;;;4.47;;
28625;SDS011;18905;42.668;23.364;2023-04-24T10:46:34;7.25;;;4.82;;
28625;SDS011;18905;42.668;23.364;2023-04-24T10:49:03;9.98;;;4.18;;
28625;SDS011;18905;42.668;23.364;2023-04-24T10:51:44;9.02;;;4.07;;
28625;SDS011;18905;42.668;23.364;2023-04-24T10:54:28;13.82;;;4.47;;
28625;SDS011;18905;42.668;23.364;2023-04-24T10:59:43;11.13;;;3.97;;
28625;SDS011;18905;42.668;23.364;2023-04-24T11:02:09;8.77;;;3.58;;
28625;SDS011;18905;42.668;23.364;2023-04-24T11:04:35;7.05;;;3.83;;
28625;SDS011;18905;42.668;23.364;2023-04-24T11:07:02;8.57;;;4.05;;
28625;SDS011;18905;42.668;23.364;2023-04-24T11:09:30;7.28;;;3.67;;
28625;SDS011;18905;42.668;23.364;2023-04-24T11:15:21;12.25;;;3.80;;
28625;SDS011;18905;42.668;23.364;2023-04-24T11:20:06;9.18;;;3.72;;
28625;SDS011;18905;42.668;23.364;2023-04-24T11:22:33;10.05;;;4.22;;
28625;SDS011;18905;42.668;23.364;2023-04-24T11:25:03;9.77;;;3.95;;
28625;SDS011;18905;42.668;23.364;2023-04-24T11:27:38;8.07;;;3.90;;
28625;SDS011;18905;42.668;23.364;2023-04-24T11:30:05;10.23;;;4.20;;
28625;SDS011;18905;42.668;23.364;2023-04-24T11:32:38;14.95;;;4.47;;
28625;SDS011;18905;42.668;23.364;2023-04-24T11:35:06;8.88;;;3.88;;
28625;SDS011;18905;42.668;23.364;2023-04-24T11:37:48;5.78;;;4.20;;
28625;SDS011;18905;42.668;23.364;2023-04-24T11:40:15;27.08;;;4.15;;
28625;SDS011;18905;42.668;23.364;2023-04-24T11:42:42;15.13;;;4.35;;
28625;SDS011;18905;42.668;23.364;2023-04-24T11:45:10;6.97;;;3.67;;
28625;SDS011;18905;42.668;23.364;2023-04-24T11:47:37;9.52;;;4.07;;
28625;SDS011;18905;42.668;23.364;2023-04-24T11:50:04;6.97;;;3.88;;
28625;SDS011;18905;42.668;23.364;2023-04-24T11:52:33;6.03;;;4.10;;
28625;SDS011;18905;42.668;23.364;2023-04-24T11:55:03;6.95;;;4.05;;
28625;SDS011;18905;42.668;23.364;2023-04-24T11:57:30;7.68;;;4.30;;
28625;SDS011;18905;42.668;23.364;2023-04-24T12:00:00;12.30;;;4.63;;
28625;SDS011;18905;42.668;23.364;2023-04-24T12:02:27;6.00;;;4.05;;
28625;SDS011;18905;42.668;23.364;2023-04-24T12:04:53;5.90;;;3.65;;
28625;SDS011;18905;42.668;23.364;2023-04-24T12:07:19;4.70;;;3.45;;
28625;SDS011;18905;42.668;23.364;2023-04-24T12:09:56;8.05;;;3.40;;
28625;SDS011;18905;42.668;23.364;2023-04-24T12:12:24;8.00;;;3.85;;
28625;SDS011;18905;42.668;23.364;2023-04-24T12:14:54;8.35;;;4.25;;
28625;SDS011;18905;42.668;23.364;2023-04-24T12:17:28;9.10;;;4.32;;
28625;SDS011;18905;42.668;23.364;2023-04-24T12:22:45;9.13;;;4.03;;
28625;SDS011;18905;42.668;23.364;2023-04-24T12:25:11;6.00;;;4.40;;
28625;SDS011;18905;42.668;23.364;2023-04-24T12:27:37;9.25;;;3.75;;
28625;SDS011;18905;42.668;23.364;2023-04-24T12:30:04;4.70;;;4.00;;
28625;SDS011;18905;42.668;23.364;2023-04-24T12:32:30;5.60;;;3.70;;
28625;SDS011;18905;42.668;23.364;2023-04-24T12:34:56;5.32;;;3.10;;
28625;SDS011;18905;42.668;23.364;2023-04-24T12:37:25;4.45;;;2.90;;
28625;SDS011;18905;42.668;23.364;2023-04-24T12:40:01;4.60;;;3.25;;
28625;SDS011;18905;42.668;23.364;2023-04-24T12:42:33;4.05;;;3.40;;
28625;SDS011;18905;42.668;23.364;2023-04-24T12:45:03;4.88;;;3.53;;
28625;SDS011;18905;42.668;23.364;2023-04-24T12:47:30;7.78;;;3.17;;
28625;SDS011;18905;42.668;23.364;2023-04-24T12:49:57;3.70;;;3.30;;
28625;SDS011;18905;42.668;23.364;2023-04-24T12:52:24;7.15;;;3.53;;
28625;SDS011;18905;42.668;23.364;2023-04-24T12:54:55;5.45;;;3.60;;
28625;SDS011;18905;42.668;23.364;2023-04-24T12:57:23;5.00;;;3.40;;
28625;SDS011;18905;42.668;23.364;2023-04-24T12:59:49;9.93;;;4.18;;
28625;SDS011;18905;42.668;23.364;2023-04-24T13:02:15;8.27;;;4.10;;
28625;SDS011;18905;42.668;23.364;2023-04-24T13:04:47;7.35;;;3.63;;
28625;SDS011;18905;42.668;23.364;2023-04-24T13:07:16;4.57;;;3.63;;
28625;SDS011;18905;42.668;23.364;2023-04-24T13:09:42;9.38;;;4.40;;
28625;SDS011;18905;42.668;23.364;2023-04-24T13:12:09;8.15;;;4.10;;
28625;SDS011;18905;42.668;23.364;2023-04-24T13:14:36;6.93;;;3.80;;
28625;SDS011;18905;42.668;23.364;2023-04-24T13:17:04;5.97;;;4.32;;
28625;SDS011;18905;42.668;23.364;2023-04-24T13:19:40;6.43;;;3.70;;
28625;SDS011;18905;42.668;23.364;2023-04-24T13:22:09;8.38;;;3.67;;
28625;SDS011;18905;42.668;23.364;2023-04-24T13:24:36;7.53;;;3.55;;
28625;SDS011;18905;42.668;23.364;2023-04-24T13:27:03;12.38;;;4.32;;
28625;SDS011;18905;42.668;23.364;2023-04-24T13:29:29;10.82;;;4.32;;
28625;SDS011;18905;42.668;23.364;2023-04-24T13:31:55;6.20;;;3.63;;
28625;SDS011;18905;42.668;23.364;2023-04-24T13:34:22;7.03;;;3.70;;
28625;SDS011;18905;42.668;23.364;2023-04-24T13:36:52;8.23;;;4.65;;
28625;SDS011;18905;42.668;23.364;2023-04-24T13:39:26;6.97;;;4.18;;
28625;SDS011;18905;42.668;23.364;2023-04-24T13:41:53;6.07;;;4.43;;
28625;SDS011;18905;42.668;23.364;2023-04-24T13:44:20;7.50;;;4.50;;
28625;SDS011;18905;42.668;23.364;2023-04-24T13:46:47;9.27;;;4.32;;
28625;SDS011;18905;42.668;23.364;2023-04-24T13:49:14;9.95;;;4.85;;
28625;SDS011;18905;42.668;23.364;2023-04-24T13:51:40;5.35;;;4.18;;
28625;SDS011;18905;42.668;23.364;2023-04-24T13:54:06;8.73;;;4.47;;
28625;SDS011;18905;42.668;23.364;2023-04-24T13:56:31;6.93;;;4.15;;
28625;SDS011;18905;42.668;23.364;2023-04-24T13:58:57;12.52;;;5.03;;
28625;SDS011;18905;42.668;23.364;2023-04-24T14:01:22;6.60;;;4.25;;
28625;SDS011;18905;42.668;23.364;2023-04-24T14:03:50;14.38;;;4.80;;
28625;SDS011;18905;42.668;23.364;2023-04-24T14:06:16;12.77;;;4.88;;
28625;SDS011;18905;42.668;23.364;2023-04-24T14:08:42;6.57;;;4.22;;
28625;SDS011;18905;42.668;23.364;2023-04-24T14:11:07;10.52;;;4.30;;
28625;SDS011;18905;42.668;23.364;2023-04-24T14:13:33;7.63;;;4.15;;
28625;SDS011;18905;42.668;23.364;2023-04-24T14:15:59;8.60;;;4.38;;
28625;SDS011;18905;42.668;23.364;2023-04-24T14:18:25;9.00;;;3.90;;
28625;SDS011;18905;42.668;23.364;2023-04-24T14:20:51;9.00;;;4.10;;
28625;SDS011;18905;42.668;23.364;2023-04-24T14:23:17;7.53;;;3.70;;
28625;SDS011;18905;42.668;23.364;2023-04-24T14:25:42;9.48;;;4.25;;
28625;SDS011;18905;42.668;23.364;2023-04-24T14:28:07;7.40;;;4.10;;
28625;SDS011;18905;42.668;23.364;2023-04-24T14:30:33;4.97;;;3.50;;
28625;SDS011;18905;42.668;23.364;2023-04-24T14:32:58;5.30;;;3.67;;
28625;SDS011;18905;42.668;23.364;2023-04-24T14:35:24;5.30;;;3.47;;
28625;SDS011;18905;42.668;23.364;2023-04-24T14:37:50;6.68;;;3.70;;